sensor_id;sensor_type;location;lat;lon;timestamp;temperature;humidity
64869;DHT22;51349;52.424;10.840;2023-04-25T00:01:42;7.80;99.90
64869;DHT22;51349;52.424;10.840;2023-04-25T00:06:43;7.80;99.90
64869;DHT22;51349;52.424;10.840;2023-04-25T00:11:44;7.80;99.90
64869;DHT22;51349;52.424;10.840;2023-04-25T00:16:44;7.70;99.90
64869;DHT22;51349;52.424;10.840;2023-04-25T00:21:45;7.70;99.90
64869;DHT22;51349;52.424;10.840;2023-04-25T00:26:46;7.60;99.90
64869;DHT22;51349;52.424;10.840;2023-04-25T00:31:47;7.60;99.90
64869;DHT22;51349;52.424;10.840;2023-04-25T00:36:48;7.40;99.90
64869;DHT22;51349;52.424;10.840;2023-04-25T00:41:50;7.30;99.90
64869;DHT22;51349;52.424;10.840;2023-04-25T00:46:54;7.30;99.90
64869;DHT22;51349;52.424;10.840;2023-04-25T00:51:55;7.20;99.90
64869;DHT22;51349;52.424;10.840;2023-04-25T00:56:56;7.30;99.90
64869;DHT22;51349;52.424;10.840;2023-04-25T01:01:58;7.40;99.90
64869;DHT22;51349;52.424;10.840;2023-04-25T01:06:59;7.40;99.90
64869;DHT22;51349;52.424;10.840;2023-04-25T01:12:00;7.40;99.90
64869;DHT22;51349;52.424;10.840;2023-04-25T01:17:01;7.40;99.90
64869;DHT22;51349;52.424;10.840;2023-04-25T01:22:02;7.40;99.90
64869;DHT22;51349;52.424;10.840;2023-04-25T01:27:04;7.30;99.90
64869;DHT22;51349;52.424;10.840;2023-04-25T01:32:05;7.30;99.90
64869;DHT22;51349;52.424;10.840;2023-04-25T01:37:06;7.30;99.90
64869;DHT22;51349;52.424;10.840;2023-04-25T01:42:07;7.20;99.90
64869;DHT22;51349;52.424;10.840;2023-04-25T01:47:07;7.20;99.90
64869;DHT22;51349;52.424;10.840;2023-04-25T01:52:08;7.20;99.90
64869;DHT22;51349;52.424;10.840;2023-04-25T01:57:09;7.20;99.90
64869;DHT22;51349;52.424;10.840;2023-04-25T02:02:10;7.30;99.90
64869;DHT22;51349;52.424;10.840;2023-04-25T02:07:10;7.20;99.90
64869;DHT22;51349;52.424;10.840;2023-04-25T02:12:11;7.30;99.90
64869;DHT22;51349;52.424;10.840;2023-04-25T02:17:12;7.30;99.90
64869;DHT22;51349;52.424;10.840;2023-04-25T02:22:13;7.30;99.90
64869;DHT22;51349;52.424;10.840;2023-04-25T02:27:14;7.30;99.90
64869;DHT22;51349;52.424;10.840;2023-04-25T02:32:15;7.30;99.90
64869;DHT22;51349;52.424;10.840;2023-04-25T02:37:16;7.30;99.90
64869;DHT22;51349;52.424;10.840;2023-04-25T02:42:16;7.30;99.90
64869;DHT22;51349;52.424;10.840;2023-04-25T02:47:17;7.30;99.90
64869;DHT22;51349;52.424;10.840;2023-04-25T02:52:18;7.30;99.90
64869;DHT22;51349;52.424;10.840;2023-04-25T02:57:18;7.30;99.90
64869;DHT22;51349;52.424;10.840;2023-04-25T03:02:19;7.20;99.90
64869;DHT22;51349;52.424;10.840;2023-04-25T03:07:20;7.20;99.90
64869;DHT22;51349;52.424;10.840;2023-04-25T03:12:20;7.10;99.90
64869;DHT22;51349;52.424;10.840;2023-04-25T03:17:21;6.90;99.90
64869;DHT22;51349;52.424;10.840;2023-04-25T03:22:22;6.80;99.90
64869;DHT22;51349;52.424;10.840;2023-04-25T03:27:22;6.70;99.90
64869;DHT22;51349;52.424;10.840;2023-04-25T03:32:23;6.70;99.90
64869;DHT22;51349;52.424;10.840;2023-04-25T03:37:24;6.60;99.90
64869;DHT22;51349;52.424;10.840;2023-04-25T03:42:24;6.60;99.90
64869;DHT22;51349;52.424;10.840;2023-04-25T03:47:25;6.60;99.90
64869;DHT22;51349;52.424;10.840;2023-04-25T03:52:26;6.50;99.90
64869;DHT22;51349;52.424;10.840;2023-04-25T03:57:26;6.50;99.90
64869;DHT22;51349;52.424;10.840;2023-04-25T04:02:27;6.50;99.90
64869;DHT22;51349;52.424;10.840;2023-04-25T04:07:28;6.50;99.90
64869;DHT22;51349;52.424;10.840;2023-04-25T04:12:28;6.50;99.90
64869;DHT22;51349;52.424;10.840;2023-04-25T04:17:29;6.40;99.90
64869;DHT22;51349;52.424;10.840;2023-04-25T04:22:30;6.30;99.90
64869;DHT22;51349;52.424;10.840;2023-04-25T04:27:32;6.30;99.90
64869;DHT22;51349;52.424;10.840;2023-04-25T04:32:33;6.20;99.90
64869;DHT22;51349;52.424;10.840;2023-04-25T04:37:34;6.10;99.90
64869;DHT22;51349;52.424;10.840;2023-04-25T04:42:35;6.20;99.90
64869;DHT22;51349;52.424;10.840;2023-04-25T04:47:36;6.20;99.90
64869;DHT22;51349;52.424;10.840;2023-04-25T04:52:38;6.20;99.90
64869;DHT22;51349;52.424;10.840;2023-04-25T04:57:39;6.20;99.90
64869;DHT22;51349;52.424;10.840;2023-04-25T05:02:39;6.30;99.90
64869;DHT22;51349;52.424;10.840;2023-04-25T05:07:40;6.30;99.90
64869;DHT22;51349;52.424;10.840;2023-04-25T05:12:41;6.30;99.90
64869;DHT22;51349;52.424;10.840;2023-04-25T05:17:41;6.30;99.90
64869;DHT22;51349;52.424;10.840;2023-04-25T05:22:42;6.30;99.90
64869;DHT22;51349;52.424;10.840;2023-04-25T05:27:43;6.30;99.90
64869;DHT22;51349;52.424;10.840;2023-04-25T05:32:43;6.30;99.90
64869;DHT22;51349;52.424;10.840;2023-04-25T05:37:44;6.30;99.90
64869;DHT22;51349;52.424;10.840;2023-04-25T05:42:44;6.40;99.90
64869;DHT22;51349;52.424;10.840;2023-04-25T05:47:45;6.40;99.90
64869;DHT22;51349;52.424;10.840;2023-04-25T05:52:46;6.30;99.90
64869;DHT22;51349;52.424;10.840;2023-04-25T05:57:46;6.40;99.90
64869;DHT22;51349;52.424;10.840;2023-04-25T06:02:47;6.70;99.90
64869;DHT22;51349;52.424;10.840;2023-04-25T06:07:48;7.10;99.90
64869;DHT22;51349;52.424;10.840;2023-04-25T06:12:49;7.10;99.90
64869;DHT22;51349;52.424;10.840;2023-04-25T06:17:49;7.20;99.90
64869;DHT22;51349;52.424;10.840;2023-04-25T06:22:50;7.10;99.90
64869;DHT22;51349;52.424;10.840;2023-04-25T06:27:52;6.80;99.90
64869;DHT22;51349;52.424;10.840;2023-04-25T06:32:52;6.80;99.90
64869;DHT22;51349;52.424;10.840;2023-04-25T06:37:53;6.80;99.90
64869;DHT22;51349;52.424;10.840;2023-04-25T06:42:54;7.10;99.90
64869;DHT22;51349;52.424;10.840;2023-04-25T06:47:54;7.40;99.90
64869;DHT22;51349;52.424;10.840;2023-04-25T06:52:55;7.70;99.90
64869;DHT22;51349;52.424;10.840;2023-04-25T06:57:56;7.50;99.90
64869;DHT22;51349;52.424;10.840;2023-04-25T07:02:56;7.90;99.90
64869;DHT22;51349;52.424;10.840;2023-04-25T07:07:57;7.80;99.90
64869;DHT22;51349;52.424;10.840;2023-04-25T07:12:58;7.80;99.90
64869;DHT22;51349;52.424;10.840;2023-04-25T07:17:58;7.80;99.90
64869;DHT22;51349;52.424;10.840;2023-04-25T07:22:59;8.10;99.90
64869;DHT22;51349;52.424;10.840;2023-04-25T07:28:00;8.00;99.90
64869;DHT22;51349;52.424;10.840;2023-04-25T07:33:01;8.50;99.90
64869;DHT22;51349;52.424;10.840;2023-04-25T07:38:02;8.50;99.90
64869;DHT22;51349;52.424;10.840;2023-04-25T07:43:03;8.80;99.90
64869;DHT22;51349;52.424;10.840;2023-04-25T07:48:04;8.70;99.90
64869;DHT22;51349;52.424;10.840;2023-04-25T07:53:04;8.90;99.90
64869;DHT22;51349;52.424;10.840;2023-04-25T07:58:08;9.50;99.90
64869;DHT22;51349;52.424;10.840;2023-04-25T08:03:09;10.10;99.90
64869;DHT22;51349;52.424;10.840;2023-04-25T08:08:10;9.70;99.90
64869;DHT22;51349;52.424;10.840;2023-04-25T08:13:11;9.80;99.20
64869;DHT22;51349;52.424;10.840;2023-04-25T08:18:11;9.60;99.90
64869;DHT22;51349;52.424;10.840;2023-04-25T08:23:12;9.10;99.60
64869;DHT22;51349;52.424;10.840;2023-04-25T08:28:14;9.00;99.90
64869;DHT22;51349;52.424;10.840;2023-04-25T08:33:15;9.00;99.80
64869;DHT22;51349;52.424;10.840;2023-04-25T08:38:16;8.90;99.90
64869;DHT22;51349;52.424;10.840;2023-04-25T08:43:19;8.80;99.90
64869;DHT22;51349;52.424;10.840;2023-04-25T08:48:21;9.00;99.90
64869;DHT22;51349;52.424;10.840;2023-04-25T08:53:31;8.90;99.90
64869;DHT22;51349;52.424;10.840;2023-04-25T08:58:32;9.50;99.90
64869;DHT22;51349;52.424;10.840;2023-04-25T09:03:34;9.60;99.90
64869;DHT22;51349;52.424;10.840;2023-04-25T09:08:36;9.80;99.90
64869;DHT22;51349;52.424;10.840;2023-04-25T09:13:37;10.00;99.90
64869;DHT22;51349;52.424;10.840;2023-04-25T09:18:38;9.80;99.40
64869;DHT22;51349;52.424;10.840;2023-04-25T09:23:48;9.30;99.90
64869;DHT22;51349;52.424;10.840;2023-04-25T09:29:05;10.40;99.90
64869;DHT22;51349;52.424;10.840;2023-04-25T09:34:07;11.40;97.10
64869;DHT22;51349;52.424;10.840;2023-04-25T09:39:12;10.70;94.00
64869;DHT22;51349;52.424;10.840;2023-04-25T09:44:23;10.10;94.50
64869;DHT22;51349;52.424;10.840;2023-04-25T09:49:26;9.80;94.60
64869;DHT22;51349;52.424;10.840;2023-04-25T09:54:28;9.50;93.60
64869;DHT22;51349;52.424;10.840;2023-04-25T09:59:30;9.40;95.00
64869;DHT22;51349;52.424;10.840;2023-04-25T10:04:35;9.50;93.20
64869;DHT22;51349;52.424;10.840;2023-04-25T10:09:37;10.30;93.40
64869;DHT22;51349;52.424;10.840;2023-04-25T10:14:39;10.00;92.00
64869;DHT22;51349;52.424;10.840;2023-04-25T10:19:40;10.00;92.70
64869;DHT22;51349;52.424;10.840;2023-04-25T10:24:42;9.40;92.10
64869;DHT22;51349;52.424;10.840;2023-04-25T10:29:44;9.60;92.20
64869;DHT22;51349;52.424;10.840;2023-04-25T10:34:45;9.80;91.40
64869;DHT22;51349;52.424;10.840;2023-04-25T10:39:49;10.40;91.90
64869;DHT22;51349;52.424;10.840;2023-04-25T10:45:04;11.00;90.70
64869;DHT22;51349;52.424;10.840;2023-04-25T10:50:08;11.50;88.40
64869;DHT22;51349;52.424;10.840;2023-04-25T10:55:08;11.40;85.70
64869;DHT22;51349;52.424;10.840;2023-04-25T11:00:13;11.50;80.70
64869;DHT22;51349;52.424;10.840;2023-04-25T11:05:24;12.90;81.30
64869;DHT22;51349;52.424;10.840;2023-04-25T11:10:30;12.80;83.10
64869;DHT22;51349;52.424;10.840;2023-04-25T11:15:30;12.30;84.40
64869;DHT22;51349;52.424;10.840;2023-04-25T11:20:31;12.10;81.70
64869;DHT22;51349;52.424;10.840;2023-04-25T11:25:32;11.20;80.10
64869;DHT22;51349;52.424;10.840;2023-04-25T11:30:32;10.60;84.30
64869;DHT22;51349;52.424;10.840;2023-04-25T11:35:33;10.60;86.20
64869;DHT22;51349;52.424;10.840;2023-04-25T11:40:35;10.40;85.30
64869;DHT22;51349;52.424;10.840;2023-04-25T11:45:37;10.10;85.40
64869;DHT22;51349;52.424;10.840;2023-04-25T11:50:39;10.20;86.80
64869;DHT22;51349;52.424;10.840;2023-04-25T11:55:40;9.60;88.50
64869;DHT22;51349;52.424;10.840;2023-04-25T12:00:42;9.70;89.70
64869;DHT22;51349;52.424;10.840;2023-04-25T12:05:45;9.80;90.30
64869;DHT22;51349;52.424;10.840;2023-04-25T12:10:46;10.40;91.10
64869;DHT22;51349;52.424;10.840;2023-04-25T12:15:47;10.20;91.80
64869;DHT22;51349;52.424;10.840;2023-04-25T12:20:48;10.70;91.00
64869;DHT22;51349;52.424;10.840;2023-04-25T12:25:49;12.10;86.70
64869;DHT22;51349;52.424;10.840;2023-04-25T12:31:02;12.90;83.00
64869;DHT22;51349;52.424;10.840;2023-04-25T12:36:04;13.80;80.50
64869;DHT22;51349;52.424;10.840;2023-04-25T12:41:09;12.70;80.30
64869;DHT22;51349;52.424;10.840;2023-04-25T12:46:10;13.10;84.30
64869;DHT22;51349;52.424;10.840;2023-04-25T12:51:11;12.90;80.10
64869;DHT22;51349;52.424;10.840;2023-04-25T12:56:12;11.90;80.90
64869;DHT22;51349;52.424;10.840;2023-04-25T13:01:13;11.10;82.60
64869;DHT22;51349;52.424;10.840;2023-04-25T13:06:15;10.80;82.00
64869;DHT22;51349;52.424;10.840;2023-04-25T13:11:16;11.10;82.20
64869;DHT22;51349;52.424;10.840;2023-04-25T13:16:19;11.90;84.50
64869;DHT22;51349;52.424;10.840;2023-04-25T13:21:21;11.80;83.20
64869;DHT22;51349;52.424;10.840;2023-04-25T13:26:21;11.00;84.30
64869;DHT22;51349;52.424;10.840;2023-04-25T13:31:22;10.80;84.40
64869;DHT22;51349;52.424;10.840;2023-04-25T13:36:23;10.70;85.60
64869;DHT22;51349;52.424;10.840;2023-04-25T13:41:24;10.70;87.10
64869;DHT22;51349;52.424;10.840;2023-04-25T13:46:25;10.70;82.70
64869;DHT22;51349;52.424;10.840;2023-04-25T13:51:25;10.80;82.70
64869;DHT22;51349;52.424;10.840;2023-04-25T13:56:26;10.80;82.30
64869;DHT22;51349;52.424;10.840;2023-04-25T14:01:27;10.50;83.50
64869;DHT22;51349;52.424;10.840;2023-04-25T14:06:28;10.50;83.60
64869;DHT22;51349;52.424;10.840;2023-04-25T14:11:29;10.90;83.90
64869;DHT22;51349;52.424;10.840;2023-04-25T14:16:30;11.80;84.10
64869;DHT22;51349;52.424;10.840;2023-04-25T14:21:32;11.90;85.80
64869;DHT22;51349;52.424;10.840;2023-04-25T14:26:36;12.20;84.20
64869;DHT22;51349;52.424;10.840;2023-04-25T14:31:38;11.60;82.90
64869;DHT22;51349;52.424;10.840;2023-04-25T14:36:39;11.70;85.00
64869;DHT22;51349;52.424;10.840;2023-04-25T14:41:40;11.10;84.30
64869;DHT22;51349;52.424;10.840;2023-04-25T14:46:41;10.20;88.20
64869;DHT22;51349;52.424;10.840;2023-04-25T14:51:41;9.20;93.30
64869;DHT22;51349;52.424;10.840;2023-04-25T14:56:42;8.30;98.60
64869;DHT22;51349;52.424;10.840;2023-04-25T15:01:43;8.60;99.90
64869;DHT22;51349;52.424;10.840;2023-04-25T15:06:44;8.60;99.90
64869;DHT22;51349;52.424;10.840;2023-04-25T15:11:44;9.20;97.90
64869;DHT22;51349;52.424;10.840;2023-04-25T15:16:45;16.30;90.20
64869;DHT22;51349;52.424;10.840;2023-04-25T15:21:46;15.00;75.90
64869;DHT22;51349;52.424;10.840;2023-04-25T15:26:47;16.00;74.80
64869;DHT22;51349;52.424;10.840;2023-04-25T15:31:48;16.70;73.30
64869;DHT22;51349;52.424;10.840;2023-04-25T15:36:49;17.50;67.70
64869;DHT22;51349;52.424;10.840;2023-04-25T15:41:49;19.00;65.40
64869;DHT22;51349;52.424;10.840;2023-04-25T15:46:50;19.90;61.80
64869;DHT22;51349;52.424;10.840;2023-04-25T15:51:50;20.70;56.30
64869;DHT22;51349;52.424;10.840;2023-04-25T15:56:51;20.80;56.40
64869;DHT22;51349;52.424;10.840;2023-04-25T16:01:52;14.70;62.90
64869;DHT22;51349;52.424;10.840;2023-04-25T16:06:53;11.60;73.00
64869;DHT22;51349;52.424;10.840;2023-04-25T16:11:54;10.60;78.50
64869;DHT22;51349;52.424;10.840;2023-04-25T16:16:54;10.00;79.40
64869;DHT22;51349;52.424;10.840;2023-04-25T16:21:55;10.00;78.90
64869;DHT22;51349;52.424;10.840;2023-04-25T16:26:56;10.00;79.20
64869;DHT22;51349;52.424;10.840;2023-04-25T16:31:57;11.00;79.80
64869;DHT22;51349;52.424;10.840;2023-04-25T16:36:58;13.40;73.70
64869;DHT22;51349;52.424;10.840;2023-04-25T16:41:59;12.20;72.50
64869;DHT22;51349;52.424;10.840;2023-04-25T16:47:00;11.70;75.50
64869;DHT22;51349;52.424;10.840;2023-04-25T16:52:00;11.90;74.90
64869;DHT22;51349;52.424;10.840;2023-04-25T16:57:01;10.60;78.20
64869;DHT22;51349;52.424;10.840;2023-04-25T17:02:04;10.00;81.40
64869;DHT22;51349;52.424;10.840;2023-04-25T17:07:04;9.90;82.20
64869;DHT22;51349;52.424;10.840;2023-04-25T17:12:06;9.60;82.30
64869;DHT22;51349;52.424;10.840;2023-04-25T17:17:07;9.50;83.10
64869;DHT22;51349;52.424;10.840;2023-04-25T17:22:08;9.10;84.50
64869;DHT22;51349;52.424;10.840;2023-04-25T17:27:10;9.00;86.80
64869;DHT22;51349;52.424;10.840;2023-04-25T17:32:10;8.40;91.00
64869;DHT22;51349;52.424;10.840;2023-04-25T17:37:11;8.00;92.60
64869;DHT22;51349;52.424;10.840;2023-04-25T17:42:15;7.50;96.10
64869;DHT22;51349;52.424;10.840;2023-04-25T17:47:16;7.20;99.90
64869;DHT22;51349;52.424;10.840;2023-04-25T17:52:16;7.00;99.90
64869;DHT22;51349;52.424;10.840;2023-04-25T17:57:17;7.00;99.90
64869;DHT22;51349;52.424;10.840;2023-04-25T18:02:18;6.90;99.90
64869;DHT22;51349;52.424;10.840;2023-04-25T18:07:19;7.10;99.90
64869;DHT22;51349;52.424;10.840;2023-04-25T18:12:20;7.00;99.90
64869;DHT22;51349;52.424;10.840;2023-04-25T18:17:21;6.80;99.90
64869;DHT22;51349;52.424;10.840;2023-04-25T18:22:24;6.60;99.90
64869;DHT22;51349;52.424;10.840;2023-04-25T18:27:25;6.40;99.90
64869;DHT22;51349;52.424;10.840;2023-04-25T18:32:26;6.40;99.90
64869;DHT22;51349;52.424;10.840;2023-04-25T18:37:30;6.30;99.90
64869;DHT22;51349;52.424;10.840;2023-04-25T18:42:32;6.10;99.90
64869;DHT22;51349;52.424;10.840;2023-04-25T18:47:33;6.00;99.90
64869;DHT22;51349;52.424;10.840;2023-04-25T18:52:33;5.90;99.90
64869;DHT22;51349;52.424;10.840;2023-04-25T18:57:34;5.90;99.90
64869;DHT22;51349;52.424;10.840;2023-04-25T19:02:35;6.00;99.90
64869;DHT22;51349;52.424;10.840;2023-04-25T19:07:36;5.80;99.90
64869;DHT22;51349;52.424;10.840;2023-04-25T19:12:37;5.70;99.90
64869;DHT22;51349;52.424;10.840;2023-04-25T19:17:38;5.70;99.90
64869;DHT22;51349;52.424;10.840;2023-04-25T19:22:39;5.60;99.90
64869;DHT22;51349;52.424;10.840;2023-04-25T19:27:39;5.50;99.90
64869;DHT22;51349;52.424;10.840;2023-04-25T19:32:40;5.50;99.90
64869;DHT22;51349;52.424;10.840;2023-04-25T19:37:41;5.50;99.90
64869;DHT22;51349;52.424;10.840;2023-04-25T19:42:45;5.30;99.90
64869;DHT22;51349;52.424;10.840;2023-04-25T19:47:46;5.10;99.90
64869;DHT22;51349;52.424;10.840;2023-04-25T19:52:47;4.90;99.90
64869;DHT22;51349;52.424;10.840;2023-04-25T19:57:48;4.80;99.90
64869;DHT22;51349;52.424;10.840;2023-04-25T20:02:48;4.70;99.90
64869;DHT22;51349;52.424;10.840;2023-04-25T20:07:49;4.60;99.90
64869;DHT22;51349;52.424;10.840;2023-04-25T20:12:50;4.50;99.90
64869;DHT22;51349;52.424;10.840;2023-04-25T20:17:50;4.40;99.90
64869;DHT22;51349;52.424;10.840;2023-04-25T20:22:51;4.30;99.90
64869;DHT22;51349;52.424;10.840;2023-04-25T20:27:53;4.40;99.90
64869;DHT22;51349;52.424;10.840;2023-04-25T20:32:54;4.40;99.90
64869;DHT22;51349;52.424;10.840;2023-04-25T20:37:54;4.30;99.90
64869;DHT22;51349;52.424;10.840;2023-04-25T20:42:55;4.30;99.90
64869;DHT22;51349;52.424;10.840;2023-04-25T20:47:56;4.20;99.90
64869;DHT22;51349;52.424;10.840;2023-04-25T20:52:57;4.10;99.90
64869;DHT22;51349;52.424;10.840;2023-04-25T20:57:57;4.00;99.90
64869;DHT22;51349;52.424;10.840;2023-04-25T21:02:59;3.80;99.90
64869;DHT22;51349;52.424;10.840;2023-04-25T21:08:02;3.70;99.90
64869;DHT22;51349;52.424;10.840;2023-04-25T21:13:03;3.70;99.90
64869;DHT22;51349;52.424;10.840;2023-04-25T21:18:04;3.70;99.90
64869;DHT22;51349;52.424;10.840;2023-04-25T21:23:06;3.70;99.90
64869;DHT22;51349;52.424;10.840;2023-04-25T21:28:07;3.70;99.90
64869;DHT22;51349;52.424;10.840;2023-04-25T21:33:08;3.60;99.90
64869;DHT22;51349;52.424;10.840;2023-04-25T21:38:09;3.60;99.90
64869;DHT22;51349;52.424;10.840;2023-04-25T21:43:09;3.60;99.90
64869;DHT22;51349;52.424;10.840;2023-04-25T21:48:10;3.60;99.90
64869;DHT22;51349;52.424;10.840;2023-04-25T21:53:11;3.70;99.90
64869;DHT22;51349;52.424;10.840;2023-04-25T21:58:11;3.80;99.90
64869;DHT22;51349;52.424;10.840;2023-04-25T22:03:12;3.60;99.90
64869;DHT22;51349;52.424;10.840;2023-04-25T22:08:15;3.60;99.90
64869;DHT22;51349;52.424;10.840;2023-04-25T22:13:16;3.70;99.90
64869;DHT22;51349;52.424;10.840;2023-04-25T22:18:17;3.60;99.90
64869;DHT22;51349;52.424;10.840;2023-04-25T22:23:19;3.60;99.90
64869;DHT22;51349;52.424;10.840;2023-04-25T22:28:19;3.50;99.90
64869;DHT22;51349;52.424;10.840;2023-04-25T22:33:21;3.60;99.90
64869;DHT22;51349;52.424;10.840;2023-04-25T22:38:22;3.50;99.90
64869;DHT22;51349;52.424;10.840;2023-04-25T22:43:22;3.40;99.90
64869;DHT22;51349;52.424;10.840;2023-04-25T22:48:23;3.40;99.90
64869;DHT22;51349;52.424;10.840;2023-04-25T22:53:24;3.40;99.90
64869;DHT22;51349;52.424;10.840;2023-04-25T22:58:25;3.30;99.90
64869;DHT22;51349;52.424;10.840;2023-04-25T23:03:25;3.20;99.90
64869;DHT22;51349;52.424;10.840;2023-04-25T23:08:26;3.30;99.90
64869;DHT22;51349;52.424;10.840;2023-04-25T23:13:27;3.20;99.90
64869;DHT22;51349;52.424;10.840;2023-04-25T23:18:28;3.10;99.90
64869;DHT22;51349;52.424;10.840;2023-04-25T23:23:29;3.10;99.90
64869;DHT22;51349;52.424;10.840;2023-04-25T23:28:29;3.10;99.90
64869;DHT22;51349;52.424;10.840;2023-04-25T23:33:30;3.10;99.90
64869;DHT22;51349;52.424;10.840;2023-04-25T23:38:31;3.00;99.90
64869;DHT22;51349;52.424;10.840;2023-04-25T23:43:32;2.90;99.90
64869;DHT22;51349;52.424;10.840;2023-04-25T23:48:32;2.90;99.90
64869;DHT22;51349;52.424;10.840;2023-04-25T23:53:33;2.80;99.90
64869;DHT22;51349;52.424;10.840;2023-04-25T23:58:34;2.80;99.90
